Time;durP1;ratioP1;P1;durP2;ratioP2;P2;SDS_P1;SDS_P2;PMS_P1;PMS_P2;Temp;Humidity;BMP_temperature;BMP_pressure;BME280_temperature;BME280_humidity;BME280_pressure;Samples;Min_cycle;Max_cycle;Signal;HPM_P1;HPM_P2
2021/06/09 15:00:21;;;;;;;6.22;3.47;;;;;;;27.33;32.28;101582.53;5116583;27;20458;-72
2021/06/09 15:02:47;;;;;;;6.10;2.65;;;;;;;27.24;32.40;101587.88;5102831;28;20480;-72
2021/06/09 15:05:16;;;;;;;6.50;3.10;;;;;;;27.37;32.78;101578.09;5102115;28;20036;-70
2021/06/09 15:07:42;;;;;;;5.72;3.35;;;;;;;27.54;32.32;101576.22;5105883;28;20164;-70
2021/06/09 15:10:08;;;;;;;5.85;2.90;;;;;;;27.70;32.38;101582.31;5095679;28;20028;-71
2021/06/09 15:12:34;;;;;;;4.63;2.65;;;;;;;27.83;31.72;101582.22;5098485;28;20024;-72
2021/06/09 15:15:02;;;;;;;4.20;2.97;;;;;;;27.73;32.41;101575.22;5093676;28;20035;-72
2021/06/09 15:17:28;;;;;;;5.88;2.90;;;;;;;27.76;32.64;101577.84;5091542;28;20027;-74
2021/06/09 15:19:54;;;;;;;4.15;2.78;;;;;;;27.79;32.60;101576.09;5088963;28;20095;-74
2021/06/09 15:22:19;;;;;;;4.13;2.55;;;;;;;27.94;32.88;101580.34;5092500;28;20199;-73
2021/06/09 15:24:45;;;;;;;5.80;3.17;;;;;;;27.82;32.67;101580.44;5096233;28;20028;-71
2021/06/09 15:27:11;;;;;;;4.85;3.15;;;;;;;27.84;33.18;101576.03;5090934;28;20028;-73
2021/06/09 15:29:36;;;;;;;7.35;3.40;;;;;;;27.76;33.10;101585.78;5088732;28;20031;-73
2021/06/09 15:32:03;;;;;;;5.45;3.13;;;;;;;27.55;33.36;101590.34;5091278;28;20198;-73
2021/06/09 15:34:28;;;;;;;5.07;3.47;;;;;;;27.31;33.15;101584.31;5099866;28;20081;-72
2021/06/09 15:36:54;;;;;;;7.93;3.53;;;;;;;27.33;33.56;101582.53;5094312;28;20044;-73
2021/06/09 15:39:22;;;;;;;6.68;3.47;;;;;;;27.29;34.06;101586.09;5088955;28;20460;-72
2021/06/09 15:41:48;;;;;;;5.30;3.58;;;;;;;27.09;34.52;101588.81;5092052;28;20128;-73
2021/06/09 15:44:15;;;;;;;5.68;3.28;;;;;;;27.16;34.90;101582.63;5092081;28;20066;-73
2021/06/09 15:46:45;;;;;;;4.43;3.35;;;;;;;27.15;34.62;101582.63;5100639;28;20030;-73
2021/06/09 15:49:12;;;;;;;6.10;3.10;;;;;;;27.07;35.37;101586.19;5095989;28;20028;-72
2021/06/09 15:51:38;;;;;;;7.47;3.33;;;;;;;27.16;34.72;101584.41;5098190;28;20107;-73
2021/06/09 15:57:25;;;;;;;9.20;3.63;;;;;;;27.01;34.55;101596.78;5091357;28;20023;-73
2021/06/09 15:59:52;;;;;;;4.15;3.08;;;;;;;26.89;34.41;101591.53;5096165;28;20048;-74
2021/06/09 16:02:18;;;;;;;5.40;3.47;;;;;;;26.99;34.54;101598.53;5079324;28;20043;-74
2021/06/09 16:04:44;;;;;;;4.10;3.08;;;;;;;26.90;34.39;101591.53;5072219;28;20089;-70
2021/06/09 16:07:10;;;;;;;6.10;3.45;;;;;;;26.93;34.06;101588.00;5101583;28;20115;-71
2021/06/09 16:09:35;;;;;;;6.15;3.22;;;;;;;26.94;33.94;101590.66;5100419;28;20032;-71
2021/06/09 16:12:01;;;;;;;6.03;3.05;;;;;;;27.01;34.20;101591.47;5080360;28;20462;-70
2021/06/09 16:14:26;;;;;;;5.82;2.90;;;;;;;26.71;34.88;101593.31;5092409;28;20032;-71
2021/06/09 16:16:52;;;;;;;4.40;2.75;;;;;;;26.79;34.75;101588.03;5084492;28;20036;-72
2021/06/09 16:19:17;;;;;;;5.50;2.90;;;;;;;26.75;33.56;101589.78;5078095;28;20040;-71
2021/06/09 16:21:42;;;;;;;4.93;2.53;;;;;;;26.85;33.78;101595.06;5078986;28;20029;-72
2021/06/09 16:24:08;;;;;;;3.75;2.80;;;;;;;26.80;33.39;101593.28;5083667;28;20030;-71
2021/06/09 16:26:34;;;;;;;5.35;2.75;;;;;;;26.60;33.86;101589.84;5079505;28;20028;-71
2021/06/09 16:29:00;;;;;;;4.30;2.67;;;;;;;26.69;33.12;101595.09;5077158;28;20099;-71
2021/06/09 16:31:26;;;;;;;3.60;2.50;;;;;;;26.66;33.25;101595.09;5073224;28;20161;-71
2021/06/09 16:33:52;;;;;;;7.40;2.75;;;;;;;26.33;33.51;101596.94;5079213;28;20042;-71
2021/06/09 16:36:17;;;;;;;4.85;2.53;;;;;;;26.35;33.34;101595.19;5080418;28;20024;-72
2021/06/09 16:38:43;;;;;;;4.32;2.63;;;;;;;26.18;32.80;101593.44;5074421;28;20086;-70
2021/06/09 16:41:08;;;;;;;4.13;2.08;;;;;;;26.27;33.51;101591.69;5074679;28;20056;-70
2021/06/09 16:43:34;;;;;;;4.28;2.55;;;;;;;26.27;33.71;101589.91;5062528;28;20398;-70
2021/06/09 16:46:00;;;;;;;4.45;2.28;;;;;;;26.12;33.08;101593.41;5077114;28;20099;-71
2021/06/09 16:48:26;;;;;;;3.63;2.38;;;;;;;26.10;33.46;101596.03;5079092;28;20468;-71
2021/06/09 16:50:51;;;;;;;4.32;2.90;;;;;;;25.94;32.50;101589.88;5087948;28;20057;-70
2021/06/09 16:53:17;;;;;;;9.27;2.70;;;;;;;25.91;32.87;101586.38;5086034;28;20439;-70
2021/06/09 16:56:02;;;;;;;3.13;2.20;;;;;;;25.82;32.74;101587.22;5081586;28;20039;-71
2021/06/09 17:01:12;;;;;;;4.35;2.42;;;;;;;25.72;33.09;101588.09;5073201;28;20508;-71
2021/06/09 17:03:39;;;;;;;4.47;2.55;;;;;;;25.75;33.37;101588.09;5080956;28;20054;-71
2021/06/09 17:06:05;;;;;;;6.57;2.78;;;;;;;25.66;33.03;101594.28;5079456;28;20032;-70
2021/06/09 17:08:31;;;;;;;3.35;2.67;;;;;;;25.60;33.06;101587.22;5082746;28;20465;-71
2021/06/09 17:10:56;;;;;;;4.05;2.70;;;;;;;25.42;33.48;101592.41;5087442;28;20114;-70
2021/06/09 17:13:23;;;;;;;5.82;2.60;;;;;;;25.60;33.42;101595.13;5074638;28;20024;-70
2021/06/09 17:15:49;;;;;;;6.18;2.97;;;;;;;25.55;33.07;101591.59;5072802;28;20481;-70
2021/06/09 17:18:15;;;;;;;5.72;3.20;;;;;;;25.32;33.14;101583.59;5081940;28;20035;-71
2021/06/09 17:21:05;;;;;;;7.47;3.40;;;;;;;25.23;33.95;101589.75;5074353;28;20031;-71
2021/06/09 17:23:31;;;;;;;5.20;2.75;;;;;;;25.27;33.55;101591.50;5079315;28;20048;-70
2021/06/09 17:25:57;;;;;;;6.03;2.83;;;;;;;25.22;33.75;101587.97;5080956;28;20028;-71
2021/06/09 17:28:25;;;;;;;7.22;2.90;;;;;;;25.28;34.02;101590.63;5081027;28;20023;-71
2021/06/09 17:30:50;;;;;;;5.15;3.55;;;;;;;25.18;33.97;101587.06;5081409;28;20107;-72
2021/06/09 17:33:16;;;;;;;3.67;2.90;;;;;;;25.25;33.83;101593.25;5080512;28;20099;-71
2021/06/09 17:35:41;;;;;;;6.32;3.22;;;;;;;25.22;33.90;101582.69;5081785;28;20028;-71
2021/06/09 17:38:07;;;;;;;4.43;3.13;;;;;;;25.11;34.07;101584.44;5082436;28;20035;-69
2021/06/09 17:40:47;;;;;;;4.97;2.50;;;;;;;24.97;33.90;101585.25;5079420;28;20032;-69
2021/06/09 17:43:13;;;;;;;6.22;2.97;;;;;;;24.95;34.14;101584.38;5080441;28;20027;-69
2021/06/09 17:45:39;;;;;;;6.00;2.63;;;;;;;24.96;34.36;101580.88;5081778;28;20017;-70
2021/06/09 17:48:53;;;;;;;4.80;2.95;;;;;;;24.94;34.35;101587.88;5081869;28;20027;-69
2021/06/09 17:51:19;;;;;;;4.22;2.90;;;;;;;24.74;34.98;101583.38;5080490;28;20008;-68
2021/06/09 17:53:45;;;;;;;6.20;2.95;;;;;;;24.78;34.47;101590.41;5071257;28;20375;-69
2021/06/09 17:56:11;;;;;;;4.82;3.00;;;;;;;24.86;34.56;101589.56;5081209;28;20023;-69
2021/06/09 17:58:37;;;;;;;5.60;3.80;;;;;;;24.83;34.25;101594.81;5082302;28;20370;-71
2021/06/09 18:01:24;;;;;;;4.93;3.05;;;;;;;24.72;35.22;101597.38;5079804;28;20474;-71
2021/06/09 18:03:50;;;;;;;6.72;3.38;;;;;;;24.79;35.33;101594.81;5068330;28;20031;-71
2021/06/09 18:06:51;;;;;;;3.88;3.00;;;;;;;24.81;34.91;101597.47;5080575;28;20024;-70
2021/06/09 18:09:16;;;;;;;5.18;3.38;;;;;;;24.73;35.12;101593.88;5080314;28;20550;-69
2021/06/09 18:11:42;;;;;;;5.82;3.00;;;;;;;24.71;35.29;101596.50;5082728;28;20020;-70
2021/06/09 18:14:08;;;;;;;7.03;3.08;;;;;;;24.58;36.04;101594.66;5080116;28;20024;-70
2021/06/09 18:16:33;;;;;;;8.88;3.17;;;;;;;24.67;36.02;101596.47;5081131;28;20383;-73
2021/06/09 18:18:59;;;;;;;6.80;3.35;;;;;;;24.58;35.48;101595.56;5081294;28;20060;-72
2021/06/09 18:21:25;;;;;;;5.70;3.95;;;;;;;24.57;36.18;101587.63;5079988;28;20012;-74
2021/06/09 18:23:51;;;;;;;5.90;3.05;;;;;;;24.55;36.24;101585.00;5077871;28;20035;-73
2021/06/09 18:26:17;;;;;;;4.60;3.30;;;;;;;24.61;36.29;101594.69;5079905;28;20020;-73
2021/06/09 18:28:43;;;;;;;6.93;4.10;;;;;;;24.30;36.76;101589.22;5083032;28;20030;-72
2021/06/09 18:31:09;;;;;;;4.72;3.05;;;;;;;24.34;36.64;101588.38;5082015;28;20093;-72
2021/06/09 18:33:36;;;;;;;5.30;3.00;;;;;;;24.19;37.40;101587.38;5085903;28;20115;-73
2021/06/09 18:36:03;;;;;;;6.32;3.53;;;;;;;24.14;37.22;101582.94;5080310;28;20605;-74
2021/06/09 18:38:32;;;;;;;5.63;3.00;;;;;;;24.21;37.28;101590.91;5084692;28;20027;-74
2021/06/09 18:40:58;;;;;;;9.32;3.80;;;;;;;24.06;37.01;101580.28;5059954;28;20022;-76
2021/06/09 18:43:23;;;;;;;7.72;3.53;;;;;;;24.01;37.32;101581.97;5082168;28;20508;-78
2021/06/09 18:45:49;;;;;;;14.95;4.18;;;;;;;24.06;37.67;101585.53;5079734;28;20024;-76
2021/06/09 18:48:15;;;;;;;15.10;3.63;;;;;;;24.05;37.96;101586.41;5079123;28;20020;-72
2021/06/09 18:50:41;;;;;;;6.68;3.53;;;;;;;23.98;38.29;101589.81;5079710;28;20024;-78
2021/06/09 18:53:07;;;;;;;4.50;3.13;;;;;;;23.92;38.56;101594.16;5080747;28;20035;-80
2021/06/09 18:55:33;;;;;;;7.20;3.08;;;;;;;23.83;38.53;101593.19;5078604;28;20115;-77
2021/06/09 18:57:59;;;;;;;6.47;3.50;;;;;;;23.76;38.57;101601.00;5066129;28;20457;-72
2021/06/09 19:00:28;;;;;;;7.32;3.42;;;;;;;23.49;39.70;101594.63;5079033;28;20051;-72
2021/06/09 19:02:54;;;;;;;7.97;3.10;;;;;;;23.48;39.16;101602.47;5078696;28;20023;-71
2021/06/09 19:05:20;;;;;;;6.18;3.20;;;;;;;23.32;40.08;101604.94;5089573;28;20059;-72
2021/06/09 19:08:23;;;;;;;5.32;3.17;;;;;;;23.26;40.03;101607.50;5079540;28;20052;-74
2021/06/09 19:10:49;;;;;;;6.45;3.03;;;;;;;23.21;39.95;101614.41;5074080;28;20024;-75
2021/06/09 19:13:15;;;;;;;4.90;3.30;;;;;;;23.15;39.79;101609.06;5068932;28;20346;-72
2021/06/09 19:15:41;;;;;;;7.30;3.00;;;;;;;23.07;40.58;101606.34;5075292;28;20020;-70
2021/06/09 19:18:09;;;;;;;5.35;2.95;;;;;;;22.91;40.31;101613.16;5089644;28;20032;-69
2021/06/09 19:20:35;;;;;;;10.27;3.33;;;;;;;22.88;41.11;101615.75;5072087;28;20501;-68
2021/06/09 19:23:01;;;;;;;5.10;3.10;;;;;;;22.82;41.63;101615.66;5089987;28;20058;-70
2021/06/09 19:25:26;;;;;;;5.00;3.05;;;;;;;22.77;42.06;101613.81;5083038;28;20029;-70
2021/06/09 19:27:52;;;;;;;6.40;3.28;;;;;;;22.75;41.65;101626.03;5073563;28;20031;-69
2021/06/09 19:30:22;;;;;;;6.50;3.10;;;;;;;22.64;42.01;101619.75;5082702;28;20031;-69
2021/06/09 19:32:50;;;;;;;6.28;3.20;;;;;;;22.49;42.47;101617.81;5079468;28;20031;-71
2021/06/09 19:35:17;;;;;;;4.88;3.35;;;;;;;22.41;42.32;101625.50;5079869;28;20024;-69
2021/06/09 19:37:43;;;;;;;6.45;3.47;;;;;;;22.34;42.53;101623.66;5082869;28;20020;-70
2021/06/09 19:40:11;;;;;;;5.97;3.42;;;;;;;22.26;42.56;101626.13;5079250;28;20032;-69
2021/06/09 19:42:36;;;;;;;5.40;3.47;;;;;;;22.18;43.22;101623.41;5091191;28;20322;-70
2021/06/09 19:45:05;;;;;;;5.15;3.15;;;;;;;22.07;43.71;101622.34;5091765;28;20045;-69
2021/06/09 19:47:31;;;;;;;6.10;3.40;;;;;;;22.04;43.49;101624.91;5096459;28;20473;-69
2021/06/09 19:49:57;;;;;;;6.10;3.08;;;;;;;21.95;44.35;101627.38;5092580;28;20032;-73
2021/06/09 19:52:25;;;;;;;3.95;3.10;;;;;;;21.86;44.73;101626.38;5095857;28;20111;-69
2021/06/09 19:54:51;;;;;;;4.60;2.78;;;;;;;21.81;45.45;101628.03;5095971;28;20027;-69
2021/06/09 19:57:16;;;;;;;7.40;3.80;;;;;;;21.73;45.22;101629.59;5095044;28;20016;-69
2021/06/09 19:59:42;;;;;;;8.13;4.22;;;;;;;21.63;45.23;101627.63;5094958;28;20043;-69
2021/06/09 20:02:08;;;;;;;5.78;3.45;;;;;;;21.58;45.49;101635.41;5095895;28;20024;-69
2021/06/09 20:04:33;;;;;;;6.63;4.03;;;;;;;21.52;44.98;101630.91;5081224;28;20388;-69
2021/06/09 20:06:59;;;;;;;8.57;4.25;;;;;;;21.45;45.88;101629.03;5075440;28;20024;-69
2021/06/09 20:09:24;;;;;;;8.02;4.20;;;;;;;21.45;45.79;101629.03;5082261;28;20017;-69
2021/06/09 20:11:50;;;;;;;8.20;4.35;;;;;;;21.33;46.20;101631.41;5074447;28;20043;-69
2021/06/09 20:14:15;;;;;;;7.95;4.20;;;;;;;21.23;46.70;101633.84;5075399;28;20052;-70
2021/06/09 20:16:41;;;;;;;6.72;4.30;;;;;;;21.19;46.80;101632.00;5074157;28;20038;-69
2021/06/09 20:19:07;;;;;;;6.68;4.38;;;;;;;21.15;47.01;101632.78;5075251;28;20025;-69
2021/06/09 20:21:32;;;;;;;9.20;4.57;;;;;;;21.17;47.15;101628.47;5083487;28;20446;-70
2021/06/09 20:24:01;;;;;;;6.72;4.68;;;;;;;21.13;47.05;101631.88;5095575;28;20081;-68
2021/06/09 20:29:10;;;;;;;5.53;4.15;;;;;;;21.00;47.53;101631.63;5075095;28;20090;-69
2021/06/09 20:31:36;;;;;;;6.05;4.07;;;;;;;20.91;48.12;101639.28;5074889;28;20035;-69
2021/06/09 20:34:01;;;;;;;7.55;4.28;;;;;;;20.82;48.27;101631.22;5089091;28;20153;-69
2021/06/09 20:36:26;;;;;;;5.32;4.00;;;;;;;20.79;48.93;101636.38;5090811;28;20035;-70
2021/06/09 20:38:52;;;;;;;6.60;4.15;;;;;;;20.67;49.22;101637.81;5077725;28;20020;-69
2021/06/09 20:41:17;;;;;;;5.72;4.57;;;;;;;20.61;49.22;101632.41;5074691;28;20044;-70
2021/06/09 20:43:43;;;;;;;6.22;4.35;;;;;;;20.51;49.06;101630.44;5077751;28;20032;-70
2021/06/09 20:46:09;;;;;;;7.55;4.18;;;;;;;20.43;49.56;101633.75;5090722;28;20043;-69
2021/06/09 20:48:35;;;;;;;4.45;3.70;;;;;;;20.44;49.20;101646.00;5085775;28;20020;-69
2021/06/09 20:51:01;;;;;;;10.40;5.50;;;;;;;20.38;49.74;101640.63;5082643;28;20182;-69
2021/06/09 20:53:27;;;;;;;6.18;4.13;;;;;;;20.32;49.79;101642.22;5082683;28;20051;-68
2021/06/09 20:55:52;;;;;;;6.80;4.40;;;;;;;20.27;49.97;101642.09;5084861;28;20155;-69
2021/06/09 20:58:18;;;;;;;6.38;4.55;;;;;;;20.20;50.24;101651.53;5083377;28;20051;-68
2021/06/09 21:00:45;;;;;;;5.78;4.22;;;;;;;20.18;50.44;101647.06;5081359;28;20080;-68
2021/06/09 21:03:11;;;;;;;7.25;5.05;;;;;;;20.09;50.48;101648.63;5084023;28;20134;-69
2021/06/09 21:05:38;;;;;;;7.80;4.90;;;;;;;20.04;50.93;101649.31;5082106;28;20031;-68
2021/06/09 21:08:04;;;;;;;9.90;4.85;;;;;;;19.97;51.16;101658.75;5083308;28;20558;-68
2021/06/09 21:10:31;;;;;;;7.47;5.10;;;;;;;19.94;51.29;101653.44;5081785;28;20048;-69
2021/06/09 21:12:57;;;;;;;5.82;4.28;;;;;;;19.90;51.85;101656.81;5085426;28;20024;-69
2021/06/09 21:15:23;;;;;;;9.60;4.65;;;;;;;19.83;51.46;101661.84;5083235;28;20031;-70
2021/06/09 21:17:49;;;;;;;7.43;5.32;;;;;;;19.80;51.83;101664.38;5085936;28;20423;-70
2021/06/09 21:20:16;;;;;;;12.07;5.20;;;;;;;19.83;52.01;101676.63;5079210;28;20024;-70
2021/06/09 21:22:42;;;;;;;11.98;5.18;;;;;;;19.71;52.73;101678.06;5066255;28;20032;-71
2021/06/09 21:25:09;;;;;;;8.10;4.75;;;;;;;19.72;52.84;101673.75;5081395;28;20035;-70
2021/06/09 21:27:35;;;;;;;10.55;5.80;;;;;;;19.60;53.73;101679.50;5083146;28;20487;-70
2021/06/09 21:30:02;;;;;;;8.95;5.97;;;;;;;19.55;54.06;101676.75;5092894;28;20102;-70
2021/06/09 21:32:28;;;;;;;7.28;5.65;;;;;;;19.47;53.79;101678.25;5079237;28;20027;-70
2021/06/09 21:34:54;;;;;;;8.45;5.63;;;;;;;19.38;54.59;101677.97;5079173;28;20073;-70
2021/06/09 21:37:19;;;;;;;9.98;6.13;;;;;;;19.36;55.02;101674.44;5083054;28;20029;-70
2021/06/09 21:39:44;;;;;;;8.98;5.63;;;;;;;19.28;55.03;101682.06;5086473;28;20065;-70
2021/06/09 21:42:10;;;;;;;7.88;6.10;;;;;;;19.20;54.96;101674.00;5094009;28;20085;-70
2021/06/09 21:44:36;;;;;;;10.13;6.03;;;;;;;19.11;55.33;101684.16;5087210;28;20027;-70
2021/06/09 21:47:02;;;;;;;8.85;6.20;;;;;;;19.07;55.46;101677.06;5089714;28;20059;-70
2021/06/09 21:49:28;;;;;;;12.05;6.10;;;;;;;19.03;55.39;101669.97;5079210;28;20035;-70
2021/06/09 21:51:53;;;;;;;13.18;6.25;;;;;;;18.92;55.62;101673.13;5092076;28;20084;-70
2021/06/09 21:54:20;;;;;;;7.72;5.82;;;;;;;18.90;56.02;101669.56;5088297;28;20032;-70
2021/06/09 21:56:46;;;;;;;8.98;5.82;;;;;;;18.82;55.81;101671.94;5071359;28;20069;-70
2021/06/09 21:59:12;;;;;;;7.68;5.90;;;;;;;18.84;55.75;101669.38;5072024;28;20044;-70
2021/06/09 22:01:38;;;;;;;12.07;6.38;;;;;;;18.82;56.23;101671.94;5078771;28;20502;-70
2021/06/09 22:04:04;;;;;;;10.95;5.88;;;;;;;18.84;56.01;101674.59;5076211;28;20020;-70
2021/06/09 22:06:29;;;;;;;7.28;5.50;;;;;;;18.76;56.29;101665.66;5073386;28;20146;-70
2021/06/09 22:08:55;;;;;;;10.55;5.85;;;;;;;18.73;56.54;101676.84;5091379;28;20022;-70
2021/06/09 22:11:20;;;;;;;8.73;6.47;;;;;;;18.72;56.32;101684.66;5092297;28;20024;-70
2021/06/09 22:13:46;;;;;;;8.75;6.35;;;;;;;18.68;56.40;101679.34;5062493;28;20028;-70
2021/06/09 22:16:12;;;;;;;7.85;5.80;;;;;;;18.61;56.31;101677.38;5085947;28;20104;-70
2021/06/09 22:18:38;;;;;;;8.27;5.47;;;;;;;18.66;56.62;101686.22;5085275;28;20033;-70
2021/06/09 22:21:04;;;;;;;8.52;6.68;;;;;;;18.59;56.39;101683.34;5071903;28;20028;-70
2021/06/09 22:23:30;;;;;;;8.48;6.15;;;;;;;18.53;56.72;101690.16;5087039;28;20034;-70
2021/06/09 22:25:56;;;;;;;8.60;6.60;;;;;;;18.53;56.93;101684.03;5071101;28;20111;-71
2021/06/09 22:28:22;;;;;;;8.25;6.35;;;;;;;18.49;56.99;101679.53;5085632;28;20020;-70
2021/06/09 22:30:47;;;;;;;8.20;6.25;;;;;;;18.45;57.25;101682.88;5080724;28;20031;-70
2021/06/09 22:33:13;;;;;;;10.18;6.40;;;;;;;18.39;57.48;101684.47;5084419;28;20104;-70
2021/06/09 22:35:38;;;;;;;7.68;6.30;;;;;;;18.42;57.87;101685.38;5091629;28;20140;-71
2021/06/09 22:38:04;;;;;;;9.35;5.90;;;;;;;18.39;57.98;101689.66;5087458;28;20031;-71
2021/06/09 22:40:29;;;;;;;8.50;5.93;;;;;;;18.37;58.17;101683.50;5073027;28;20029;-71
2021/06/09 22:42:55;;;;;;;10.25;6.50;;;;;;;18.31;57.98;101672.88;5072764;28;20100;-70
2021/06/09 22:45:20;;;;;;;9.65;6.13;;;;;;;18.29;58.50;101690.19;5080859;28;20052;-70
2021/06/09 22:47:47;;;;;;;10.05;6.13;;;;;;;18.29;58.42;101684.97;5091076;28;20031;-70
2021/06/09 22:50:13;;;;;;;8.65;6.47;;;;;;;18.30;58.57;101683.28;5091811;28;20586;-71
2021/06/09 22:52:39;;;;;;;9.25;6.40;;;;;;;18.23;58.58;101680.47;5083222;28;20042;-70
2021/06/09 22:55:06;;;;;;;10.60;5.97;;;;;;;18.20;58.54;101682.06;5055185;28;20493;-70
2021/06/09 22:57:32;;;;;;;7.70;6.63;;;;;;;18.15;58.79;101675.81;5076513;28;20056;-70
2021/06/09 22:59:57;;;;;;;8.73;6.10;;;;;;;18.22;58.76;101672.56;5080122;28;20068;-70
2021/06/09 23:02:23;;;;;;;7.47;5.82;;;;;;;18.17;58.55;101674.13;5075699;28;20446;-70
2021/06/09 23:04:49;;;;;;;7.50;5.57;;;;;;;18.20;58.46;101674.25;5072712;28;20104;-70
2021/06/09 23:07:16;;;;;;;10.50;6.43;;;;;;;18.24;58.58;101673.50;5091755;28;20074;-70
2021/06/09 23:09:41;;;;;;;9.18;7.70;;;;;;;18.16;58.73;101672.34;5092710;28;20077;-70
2021/06/09 23:12:07;;;;;;;9.80;7.32;;;;;;;18.15;58.78;101670.59;5090806;28;20452;-70
2021/06/09 23:14:34;;;;;;;10.65;7.25;;;;;;;18.14;58.46;101674.03;5084843;28;20063;-71
2021/06/09 23:17:00;;;;;;;9.48;6.65;;;;;;;18.08;58.76;101669.50;5084078;28;20031;-70
2021/06/09 23:19:26;;;;;;;9.82;6.63;;;;;;;18.03;59.07;101671.06;5092588;28;20040;-71
2021/06/09 23:21:51;;;;;;;9.55;6.70;;;;;;;18.04;58.74;101663.28;5094363;28;20028;-70
2021/06/09 23:24:16;;;;;;;10.85;6.95;;;;;;;18.07;58.45;101668.59;5058520;28;20032;-70
2021/06/09 23:26:42;;;;;;;8.80;6.70;;;;;;;18.10;58.90;101673.94;5093221;28;20027;-71
2021/06/09 23:29:07;;;;;;;11.98;7.00;;;;;;;18.07;59.13;101673.81;5083272;28;20029;-70
2021/06/09 23:31:33;;;;;;;10.20;7.03;;;;;;;18.03;58.74;101664.13;5088374;28;20032;-71
2021/06/09 23:33:58;;;;;;;11.02;7.68;;;;;;;18.07;58.65;101676.44;5077779;28;20107;-71
2021/06/09 23:36:23;;;;;;;11.18;7.80;;;;;;;18.13;58.36;101674.88;5084753;28;20028;-70
2021/06/09 23:38:49;;;;;;;12.27;7.75;;;;;;;18.12;58.47;101670.47;5096524;28;20024;-70
2021/06/09 23:41:14;;;;;;;9.43;7.65;;;;;;;18.14;58.50;101669.72;5082394;28;20039;-70
2021/06/09 23:43:40;;;;;;;10.07;7.07;;;;;;;18.08;58.42;101670.38;5090540;28;20203;-70
2021/06/09 23:46:05;;;;;;;12.15;8.20;;;;;;;18.12;58.65;101673.09;5094643;28;20036;-70
2021/06/09 23:48:33;;;;;;;10.88;8.60;;;;;;;18.18;58.37;101673.31;5077366;28;20020;-70
2021/06/09 23:53:27;;;;;;;10.02;8.60;;;;;;;18.20;58.39;101679.44;5078231;28;20085;-70
2021/06/09 23:55:54;;;;;;;9.80;8.32;;;;;;;18.21;58.20;101676.91;5081176;28;20085;-70
2021/06/09 23:58:19;;;;;;;11.82;7.85;;;;;;;18.22;58.04;101677.78;5080323;28;20049;-71
